CPA749 VECC-VHHX
Flight info
| Callsign | CPA749 |
|---|---|
| Flight time | N/A |
| Altitude | 41000 |
| Route | SUMAG2C SUMAG DCT CTG A599 LINSO/K0902S1250 A599 POU |
| Aircraft | A359/H-SDE2E3GHIJ3J4J5LM1ORWXY/LB1D1 |
Departure
| Time | 2026-05-06 00:47 |
|---|---|
| Airport | Netaji Subhash Chandra Bose International Airport (VECC) |
Arrival
| Time | N/A |
|---|---|
| Airport | Hong Kong International Airport Kai Tak (VHHX) |
| Time | Latitude | Longitude | Altitude | Speed | Heading |
|---|---|---|---|---|---|
| 2026-05-06 00:42 | 22.64012 | 88.44166 | 34 ft | 10 kts | 97° |
| 2026-05-06 00:42 | 22.64009 | 88.44254 | 34 ft | 12 kts | 73° |
| 2026-05-06 00:43 | 22.64065 | 88.44295 | 34 ft | 9 kts | 9° |
| 2026-05-06 00:43 | 22.64139 | 88.44305 | 34 ft | 13 kts | 7° |
| 2026-05-06 00:43 | 22.64238 | 88.44318 | 35 ft | 16 kts | 7° |
| 2026-05-06 00:43 | 22.64354 | 88.44331 | 35 ft | 18 kts | 4° |
| 2026-05-06 00:44 | 22.64485 | 88.44346 | 34 ft | 20 kts | 8° |
| 2026-05-06 00:44 | 22.64636 | 88.44367 | 34 ft | 23 kts | 5° |
| 2026-05-06 00:44 | 22.64804 | 88.44384 | 34 ft | 26 kts | 5° |
| 2026-05-06 00:44 | 22.64990 | 88.44403 | 34 ft | 28 kts | 6° |
| 2026-05-06 00:45 | 22.65672 | 88.44480 | 36 ft | 0 kts | 5° |
| 2026-05-06 00:45 | 22.66549 | 88.44773 | 32 ft | 0 kts | 46° |
| 2026-05-06 00:45 | 22.66566 | 88.44791 | 32 ft | 13 kts | 46° |
| 2026-05-06 00:45 | 22.66640 | 88.44922 | 33 ft | 0 kts | 97° |
| 2026-05-06 00:46 | 22.66632 | 88.44920 | 32 ft | 3 kts | 187° |
| 2026-05-06 00:46 | 22.66460 | 88.44900 | 32 ft | 63 kts | 186° |
| 2026-05-06 00:46 | 22.65762 | 88.44819 | 37 ft | 136 kts | 186° |
| 2026-05-06 00:46 | 22.64615 | 88.44679 | 100 ft | 191 kts | 187° |
| 2026-05-06 00:47 | 22.63323 | 88.44560 | 1140 ft | 171 kts | 182° |
| 2026-05-06 00:47 | 22.62287 | 88.44357 | 2350 ft | 136 kts | 216° |
| 2026-05-06 00:47 | 22.61756 | 88.43476 | 2538 ft | 177 kts | 242° |
| 2026-05-06 00:47 | 22.61346 | 88.42023 | 2509 ft | 170 kts | 260° |
| 2026-05-06 00:48 | 22.61100 | 88.40822 | 3439 ft | 157 kts | 241° |
| 2026-05-06 00:48 | 22.60231 | 88.40142 | 3802 ft | 168 kts | 191° |
| 2026-05-06 00:48 | 22.59006 | 88.40440 | 3844 ft | 205 kts | 148° |
| 2026-05-06 00:48 | 22.58066 | 88.41800 | 3690 ft | 252 kts | 111° |
| 2026-05-06 00:49 | 22.57985 | 88.43764 | 3459 ft | 274 kts | 77° |
| 2026-05-06 00:49 | 22.58908 | 88.45572 | 3237 ft | 277 kts | 49° |
| 2026-05-06 00:49 | 22.60121 | 88.47190 | 2980 ft | 277 kts | 62° |
| 2026-05-06 00:49 | 22.60548 | 88.49178 | 2745 ft | 273 kts | 95° |
| 2026-05-06 00:50 | 22.60159 | 88.51171 | 2511 ft | 270 kts | 108° |
| 2026-05-06 00:50 | 22.59598 | 88.53109 | 2274 ft | 269 kts | 109° |
| 2026-05-06 00:50 | 22.59037 | 88.55042 | 2025 ft | 268 kts | 108° |
| 2026-05-06 00:50 | 22.58508 | 88.56918 | 2100 ft | 264 kts | 108° |
| 2026-05-06 00:51 | 22.57973 | 88.58852 | 2435 ft | 270 kts | 108° |
| 2026-05-06 00:51 | 22.57440 | 88.60799 | 3187 ft | 271 kts | 108° |
| 2026-05-06 00:51 | 22.56906 | 88.62765 | 3970 ft | 272 kts | 107° |
| 2026-05-06 00:51 | 22.56371 | 88.64738 | 4704 ft | 275 kts | 107° |
| 2026-05-06 00:52 | 22.55829 | 88.66738 | 5377 ft | 279 kts | 107° |
| 2026-05-06 00:52 | 22.55370 | 88.68781 | 5833 ft | 282 kts | 98° |
| 2026-05-06 00:52 | 22.55446 | 88.70909 | 6201 ft | 286 kts | 82° |
| 2026-05-06 00:52 | 22.55787 | 88.73023 | 6840 ft | 289 kts | 80° |
| 2026-05-06 00:53 | 22.55914 | 88.73753 | 7082 ft | 289 kts | 79° |